Time;durP1;ratioP1;P1;durP2;ratioP2;P2;SDS_P1;SDS_P2;PMS_P1;PMS_P2;Temp;Humidity;BMP_temperature;BMP_pressure;BME280_temperature;BME280_humidity;BME280_pressure;Samples;Min_cycle;Max_cycle;Signal;HPM_P1;HPM_P2
2023/04/03 00:00:09;;;;;;;12.80;9.85;;;;;;;;;;4952239;28;20827;-44
2023/04/03 00:02:35;;;;;;;12.23;9.90;;;;;;;;;;4956666;28;20687;-45
2023/04/03 00:05:01;;;;;;;14.13;9.10;;;;;;;;;;4970362;28;20713;-44
2023/04/03 00:07:27;;;;;;;19.90;10.30;;;;;;;;;;4965924;28;20277;-44
2023/04/03 00:09:53;;;;;;;17.93;9.50;;;;;;;;;;4966220;28;21036;-44
2023/04/03 00:12:19;;;;;;;11.33;9.30;;;;;;;;;;4964778;28;20471;-44
2023/04/03 00:14:45;;;;;;;12.47;9.13;;;;;;;;;;4964552;28;20429;-44
2023/04/03 00:17:11;;;;;;;10.87;8.50;;;;;;;;;;4963206;28;20414;-44
2023/04/03 00:19:37;;;;;;;13.87;9.00;;;;;;;;;;4966851;28;20418;-44
2023/04/03 00:22:03;;;;;;;16.07;9.10;;;;;;;;;;4968505;28;20419;-44
2023/04/03 00:24:29;;;;;;;11.00;8.17;;;;;;;;;;4964275;28;20860;-44
2023/04/03 00:26:55;;;;;;;13.10;9.47;;;;;;;;;;4960601;28;20481;-44
2023/04/03 00:29:21;;;;;;;12.47;9.93;;;;;;;;;;4962398;28;20499;-44
2023/04/03 00:31:47;;;;;;;12.27;8.60;;;;;;;;;;4961299;28;20793;-44
2023/04/03 00:34:13;;;;;;;9.30;7.90;;;;;;;;;;4966684;28;20408;-44
2023/04/03 00:36:39;;;;;;;17.47;8.57;;;;;;;;;;4965240;28;20481;-44
2023/04/03 00:39:05;;;;;;;14.73;9.18;;;;;;;;;;4966725;28;20409;-44
2023/04/03 00:41:31;;;;;;;12.23;9.20;;;;;;;;;;4968732;28;20198;-44
2023/04/03 00:43:57;;;;;;;13.45;8.93;;;;;;;;;;4958615;28;20746;-44
2023/04/03 00:46:23;;;;;;;13.55;8.80;;;;;;;;;;4966699;28;20560;-44
2023/04/03 00:48:50;;;;;;;12.17;9.30;;;;;;;;;;4963404;28;20210;-44
2023/04/03 00:51:24;;;;;;;12.25;8.45;;;;;;;;;;4966212;28;20982;-44
2023/04/03 00:54:01;;;;;;;14.95;9.40;;;;;;;;;;4963257;28;20389;-44
2023/04/03 00:56:28;;;;;;;11.48;9.50;;;;;;;;;;4963027;28;20178;-44
2023/04/03 00:58:57;;;;;;;12.43;9.38;;;;;;;;;;4963182;28;20188;-44
2023/04/03 01:01:25;;;;;;;13.02;10.27;;;;;;;;;;4959162;28;20748;-44
2023/04/03 01:03:51;;;;;;;12.85;10.30;;;;;;;;;;4964373;28;20293;-44
2023/04/03 01:06:20;;;;;;;12.15;9.98;;;;;;;;;;4961841;28;20205;-44
2023/04/03 01:08:48;;;;;;;14.40;9.38;;;;;;;;;;4959569;28;20209;-44
2023/04/03 01:11:14;;;;;;;11.98;10.20;;;;;;;;;;4962549;28;20446;-44
2023/04/03 01:13:40;;;;;;;12.48;9.30;;;;;;;;;;4961271;28;20158;-44
2023/04/03 01:16:07;;;;;;;12.90;9.73;;;;;;;;;;4965025;28;20172;-44
2023/04/03 01:18:34;;;;;;;17.10;10.80;;;;;;;;;;4965366;28;20190;-44
2023/04/03 01:21:18;;;;;;;17.33;12.07;;;;;;;;;;4965839;28;20205;-44
2023/04/03 01:23:50;;;;;;;16.25;11.95;;;;;;;;;;4963651;28;20248;-44
2023/04/03 01:26:16;;;;;;;17.42;11.98;;;;;;;;;;4962450;28;20209;-44
2023/04/03 01:28:42;;;;;;;18.73;10.32;;;;;;;;;;4968194;28;20543;-44
2023/04/03 01:31:26;;;;;;;14.70;11.63;;;;;;;;;;4958805;28;20213;-44
2023/04/03 01:33:52;;;;;;;12.25;9.07;;;;;;;;;;4961604;28;20797;-44
2023/04/03 01:36:21;;;;;;;17.13;9.60;;;;;;;;;;4962410;28;20256;-44
2023/04/03 01:38:47;;;;;;;9.40;7.43;;;;;;;;;;4962357;28;20464;-44
2023/04/03 01:41:13;;;;;;;16.60;9.00;;;;;;;;;;4957466;28;20201;-44
2023/04/03 01:43:39;;;;;;;11.95;9.13;;;;;;;;;;4965855;28;20329;-44
2023/04/03 01:46:05;;;;;;;14.20;8.07;;;;;;;;;;4967317;28;20177;-44
2023/04/03 01:48:31;;;;;;;17.37;7.50;;;;;;;;;;4963188;28;20213;-44
2023/04/03 01:50:57;;;;;;;15.43;7.60;;;;;;;;;;4959059;28;20527;-44
2023/04/03 01:53:23;;;;;;;7.60;6.80;;;;;;;;;;4961306;28;20412;-44
2023/04/03 01:55:49;;;;;;;8.20;6.40;;;;;;;;;;4962343;28;20558;-44
2023/04/03 01:58:15;;;;;;;7.72;6.70;;;;;;;;;;4965347;28;20948;-44
2023/04/03 02:00:41;;;;;;;10.03;7.37;;;;;;;;;;4962424;28;20344;-44
2023/04/03 02:03:07;;;;;;;14.23;7.40;;;;;;;;;;4964516;28;20425;-44
2023/04/03 02:05:33;;;;;;;8.97;6.40;;;;;;;;;;4961834;28;20928;-44
2023/04/03 02:07:59;;;;;;;9.07;5.50;;;;;;;;;;4957494;28;20483;-44
2023/04/03 02:10:25;;;;;;;6.17;5.50;;;;;;;;;;4964879;28;20372;-44
2023/04/03 02:12:51;;;;;;;13.73;5.77;;;;;;;;;;4962547;28;20414;-44
2023/04/03 02:15:17;;;;;;;13.95;7.78;;;;;;;;;;4965068;28;20767;-44
2023/04/03 02:17:43;;;;;;;6.35;5.72;;;;;;;;;;4957452;28;20521;-44
2023/04/03 02:20:09;;;;;;;5.53;4.65;;;;;;;;;;4963699;28;20194;-44
2023/04/03 02:22:35;;;;;;;12.35;5.65;;;;;;;;;;4967853;28;20564;-44
2023/04/03 02:25:01;;;;;;;5.90;4.35;;;;;;;;;;4963082;28;20183;-44
2023/04/03 02:27:27;;;;;;;5.90;4.82;;;;;;;;;;4963635;28;20181;-44
2023/04/03 02:29:53;;;;;;;4.73;3.50;;;;;;;;;;4960391;28;20694;-44
2023/04/03 02:32:19;;;;;;;11.20;4.10;;;;;;;;;;4964036;28;20434;-44
2023/04/03 02:34:46;;;;;;;4.67;4.20;;;;;;;;;;4961535;28;20414;-44
2023/04/03 02:37:12;;;;;;;5.95;4.25;;;;;;;;;;4961811;28;20417;-44
2023/04/03 02:39:38;;;;;;;5.88;4.15;;;;;;;;;;4955317;28;20236;-44
2023/04/03 02:42:04;;;;;;;4.17;3.77;;;;;;;;;;4957075;28;20740;-44
2023/04/03 02:44:30;;;;;;;5.13;3.20;;;;;;;;;;4964584;28;20805;-44
2023/04/03 02:46:56;;;;;;;7.13;4.30;;;;;;;;;;4962605;28;20492;-44
2023/04/03 02:49:22;;;;;;;10.13;5.40;;;;;;;;;;4960793;28;20678;-44
2023/04/03 02:51:48;;;;;;;10.80;5.63;;;;;;;;;;4961600;28;20909;-44
2023/04/03 02:54:14;;;;;;;8.63;3.60;;;;;;;;;;4964652;28;20959;-44
2023/04/03 02:56:40;;;;;;;8.95;4.32;;;;;;;;;;4958155;28;20406;-44
2023/04/03 02:59:06;;;;;;;4.20;3.80;;;;;;;;;;4965110;28;20285;-44
2023/04/03 03:01:32;;;;;;;7.00;3.70;;;;;;;;;;4957412;28;20448;-44
2023/04/03 03:03:59;;;;;;;4.95;3.72;;;;;;;;;;4962431;28;20449;-44
2023/04/03 03:06:25;;;;;;;5.65;3.80;;;;;;;;;;4964771;28;20173;-44
2023/04/03 03:08:51;;;;;;;4.00;3.50;;;;;;;;;;4962590;28;20257;-44
2023/04/03 03:11:17;;;;;;;4.93;3.43;;;;;;;;;;4964213;28;20193;-44
2023/04/03 03:13:43;;;;;;;6.38;3.83;;;;;;;;;;4957254;28;20408;-43
2023/04/03 03:16:09;;;;;;;3.30;2.97;;;;;;;;;;4963317;28;20629;-44
2023/04/03 03:18:36;;;;;;;6.90;3.00;;;;;;;;;;4959932;28;20469;-44
2023/04/03 03:21:03;;;;;;;6.15;3.60;;;;;;;;;;4962560;28;20209;-44
2023/04/03 03:23:30;;;;;;;5.57;3.80;;;;;;;;;;4963838;28;20182;-44
2023/04/03 03:25:57;;;;;;;4.85;3.80;;;;;;;;;;4960074;28;20189;-43
2023/04/03 03:28:23;;;;;;;6.10;3.40;;;;;;;;;;4962159;28;20194;-44
2023/04/03 03:30:49;;;;;;;6.38;3.97;;;;;;;;;;4958943;28;20369;-44
2023/04/03 03:33:17;;;;;;;6.05;3.38;;;;;;;;;;4957744;28;20173;-44
2023/04/03 03:35:43;;;;;;;9.98;7.05;;;;;;;;;;4964372;28;20174;-44
2023/04/03 03:38:09;;;;;;;3.88;3.47;;;;;;;;;;4968821;28;20584;-44
2023/04/03 03:40:35;;;;;;;7.95;3.70;;;;;;;;;;4966171;28;20284;-45
2023/04/03 03:43:01;;;;;;;4.65;4.10;;;;;;;;;;4962329;28;20197;-44
2023/04/03 03:45:27;;;;;;;3.83;3.27;;;;;;;;;;4963554;28;20186;-44
2023/04/03 03:47:53;;;;;;;6.07;3.80;;;;;;;;;;4964723;28;20545;-44
2023/04/03 03:50:19;;;;;;;4.78;3.80;;;;;;;;;;4967519;28;20539;-44
2023/04/03 03:52:45;;;;;;;6.70;4.22;;;;;;;;;;4965855;28;20842;-44
2023/04/03 03:55:12;;;;;;;6.15;5.15;;;;;;;;;;4968571;28;20596;-44
2023/04/03 03:57:38;;;;;;;9.10;4.38;;;;;;;;;;4965294;28;20205;-45
2023/04/03 04:00:04;;;;;;;9.17;5.10;;;;;;;;;;4960180;28;20288;-44
2023/04/03 04:02:30;;;;;;;5.47;3.67;;;;;;;;;;4958778;28;20879;-43
2023/04/03 04:04:56;;;;;;;9.55;4.45;;;;;;;;;;4964961;28;20314;-44
2023/04/03 04:07:22;;;;;;;7.82;4.75;;;;;;;;;;4967296;28;20244;-43
2023/04/03 04:09:48;;;;;;;17.83;4.73;;;;;;;;;;4963771;28;20242;-43
2023/04/03 04:12:14;;;;;;;6.10;4.20;;;;;;;;;;4966652;28;20417;-43
2023/04/03 04:14:40;;;;;;;3.90;3.55;;;;;;;;;;4963587;28;20417;-44
2023/04/03 04:17:06;;;;;;;7.20;3.60;;;;;;;;;;4960269;28;20262;-43
2023/04/03 04:19:33;;;;;;;7.22;4.22;;;;;;;;;;4966944;28;20413;-44
2023/04/03 04:21:59;;;;;;;6.18;4.20;;;;;;;;;;4963120;28;20192;-44
2023/04/03 04:24:25;;;;;;;7.47;4.03;;;;;;;;;;4964894;28;20197;-44
2023/04/03 04:26:51;;;;;;;8.05;3.50;;;;;;;;;;4963853;28;20418;-44
2023/04/03 04:29:17;;;;;;;12.20;5.72;;;;;;;;;;4964142;28;20198;-44
2023/04/03 04:31:43;;;;;;;7.70;3.67;;;;;;;;;;4961676;28;20553;-44
2023/04/03 04:34:09;;;;;;;7.50;4.17;;;;;;;;;;4967253;28;20475;-44
2023/04/03 04:36:35;;;;;;;16.25;4.15;;;;;;;;;;4965566;28;20405;-44
2023/04/03 04:39:02;;;;;;;4.07;3.67;;;;;;;;;;4961202;28;20194;-43
2023/04/03 04:41:28;;;;;;;15.77;10.68;;;;;;;;;;4962369;28;20940;-43
2023/04/03 04:43:54;;;;;;;7.23;4.20;;;;;;;;;;4963944;28;20190;-44
2023/04/03 04:46:20;;;;;;;8.40;4.97;;;;;;;;;;4966634;28;21045;-43
2023/04/03 04:48:46;;;;;;;10.40;3.87;;;;;;;;;;4962983;28;20211;-44
2023/04/03 04:51:12;;;;;;;5.03;4.20;;;;;;;;;;4966276;28;20434;-44
2023/04/03 04:53:38;;;;;;;7.90;3.97;;;;;;;;;;4950299;28;20179;-44
2023/04/03 04:56:04;;;;;;;3.40;3.10;;;;;;;;;;4963128;28;20417;-44
2023/04/03 04:58:30;;;;;;;4.57;3.55;;;;;;;;;;4960699;28;20445;-44
2023/04/03 05:01:00;;;;;;;5.33;4.17;;;;;;;;;;4965120;28;20229;-44
2023/04/03 05:03:26;;;;;;;5.95;4.20;;;;;;;;;;4965126;28;20425;-44
2023/04/03 05:05:51;;;;;;;5.60;4.40;;;;;;;;;;4961732;28;20193;-43
2023/04/03 05:08:17;;;;;;;8.10;3.50;;;;;;;;;;4960092;28;20977;-44
2023/04/03 05:10:45;;;;;;;5.60;3.90;;;;;;;;;;4966292;28;20425;-44
2023/04/03 05:13:11;;;;;;;9.38;5.35;;;;;;;;;;4963124;28;20410;-44
2023/04/03 05:15:38;;;;;;;7.77;3.70;;;;;;;;;;4962819;28;20175;-44
2023/04/03 05:18:04;;;;;;;5.13;3.60;;;;;;;;;;4967925;28;20476;-44
2023/04/03 05:20:31;;;;;;;9.48;4.40;;;;;;;;;;4963518;28;20209;-44
2023/04/03 05:22:57;;;;;;;4.90;4.00;;;;;;;;;;4960220;28;20209;-44
2023/04/03 05:25:24;;;;;;;10.35;3.88;;;;;;;;;;4962169;28;20178;-44
2023/04/03 05:27:50;;;;;;;8.43;4.47;;;;;;;;;;4962395;28;20183;-44
2023/04/03 05:30:16;;;;;;;5.65;3.65;;;;;;;;;;4965825;28;20209;-44
2023/04/03 05:32:42;;;;;;;4.60;4.13;;;;;;;;;;4964296;28;20179;-44
2023/04/03 05:35:09;;;;;;;9.40;4.80;;;;;;;;;;4961438;28;20554;-44
2023/04/03 05:37:35;;;;;;;5.93;3.97;;;;;;;;;;4962565;28;20772;-44
2023/04/03 05:40:01;;;;;;;5.72;3.95;;;;;;;;;;4958158;28;20746;-44
2023/04/03 05:42:27;;;;;;;6.90;4.15;;;;;;;;;;4965605;28;20173;-45
2023/04/03 05:44:53;;;;;;;6.67;3.87;;;;;;;;;;4963303;28;20441;-44
2023/04/03 05:47:19;;;;;;;13.03;4.47;;;;;;;;;;4965562;28;20475;-44
2023/04/03 05:49:46;;;;;;;5.63;3.42;;;;;;;;;;4957949;28;20564;-43
2023/04/03 05:52:23;;;;;;;11.95;4.78;;;;;;;;;;4964629;28;20229;-44
2023/04/03 05:54:49;;;;;;;10.88;4.30;;;;;;;;;;4963083;28;20188;-44
2023/04/03 05:57:18;;;;;;;5.68;3.72;;;;;;;;;;4960642;28;20199;-44
2023/04/03 05:59:45;;;;;;;5.97;4.28;;;;;;;;;;4966687;28;20194;-43
2023/04/03 06:02:12;;;;;;;4.55;3.90;;;;;;;;;;4960319;28;20182;-44
2023/04/03 06:04:38;;;;;;;4.80;4.00;;;;;;;;;;4961572;28;20183;-44
2023/04/03 06:07:04;;;;;;;11.23;4.07;;;;;;;;;;4963017;28;20660;-43
2023/04/03 06:09:30;;;;;;;7.00;4.80;;;;;;;;;;4961540;28;20457;-44
2023/04/03 06:11:58;;;;;;;6.53;4.45;;;;;;;;;;4962622;28;20273;-44
2023/04/03 06:14:25;;;;;;;7.97;3.30;;;;;;;;;;4966793;28;20658;-44
2023/04/03 06:16:51;;;;;;;11.73;3.88;;;;;;;;;;4966633;28;20212;-43
2023/04/03 06:19:17;;;;;;;4.00;3.60;;;;;;;;;;4960464;28;20181;-43
2023/04/03 06:21:43;;;;;;;4.82;3.50;;;;;;;;;;4957719;28;20208;-43
2023/04/03 06:24:10;;;;;;;6.07;3.53;;;;;;;;;;4961042;28;20268;-44
2023/04/03 06:26:36;;;;;;;7.40;3.60;;;;;;;;;;4961703;28;20417;-44
2023/04/03 06:29:03;;;;;;;5.90;4.33;;;;;;;;;;4962871;28;20205;-44
2023/04/03 06:31:29;;;;;;;4.25;3.20;;;;;;;;;;4964714;28;20585;-44
2023/04/03 06:33:56;;;;;;;6.43;4.10;;;;;;;;;;4964946;28;20177;-44
2023/04/03 06:36:22;;;;;;;5.40;3.25;;;;;;;;;;4960043;28;20196;-44
2023/04/03 06:38:49;;;;;;;4.32;2.95;;;;;;;;;;4957371;28;20217;-44
2023/04/03 06:41:16;;;;;;;4.70;3.15;;;;;;;;;;4964481;28;20608;-43
2023/04/03 06:43:42;;;;;;;9.55;4.00;;;;;;;;;;4963071;28;20240;-44
2023/04/03 06:46:13;;;;;;;6.00;3.50;;;;;;;;;;4964067;28;20218;-45
2023/04/03 06:48:39;;;;;;;7.70;3.13;;;;;;;;;;4953777;28;20207;-43
2023/04/03 06:51:05;;;;;;;5.05;3.65;;;;;;;;;;4963389;28;20197;-44
2023/04/03 06:53:31;;;;;;;8.33;3.43;;;;;;;;;;4956842;28;20177;-43
2023/04/03 06:55:59;;;;;;;11.90;4.63;;;;;;;;;;4969499;28;20413;-44
2023/04/03 06:58:26;;;;;;;9.60;4.50;;;;;;;;;;4963274;28;20244;-44
2023/04/03 07:00:52;;;;;;;5.68;3.95;;;;;;;;;;4960401;28;20213;-44
2023/04/03 07:03:18;;;;;;;7.67;4.00;;;;;;;;;;4963298;28;20186;-43
2023/04/03 07:05:44;;;;;;;8.87;4.17;;;;;;;;;;4961380;28;20406;-44
2023/04/03 07:08:10;;;;;;;4.25;3.47;;;;;;;;;;4961896;28;20461;-44
2023/04/03 07:10:38;;;;;;;4.97;3.50;;;;;;;;;;4947781;28;20206;-44
2023/04/03 07:13:04;;;;;;;6.50;3.77;;;;;;;;;;4957149;28;20789;-45
2023/04/03 07:15:30;;;;;;;4.67;3.27;;;;;;;;;;4963495;28;20432;-45
2023/04/03 07:17:56;;;;;;;4.70;3.60;;;;;;;;;;4964582;28;20479;-44
2023/04/03 07:20:22;;;;;;;5.70;3.40;;;;;;;;;;4964992;28;20539;-44
2023/04/03 07:22:48;;;;;;;5.53;2.50;;;;;;;;;;4963681;28;20414;-44
2023/04/03 07:25:13;;;;;;;2.50;2.20;;;;;;;;;;4966685;28;20940;-44
2023/04/03 07:27:40;;;;;;;7.43;2.90;;;;;;;;;;4959586;28;20938;-44
2023/04/03 07:30:06;;;;;;;5.13;2.60;;;;;;;;;;4969865;28;20489;-44
2023/04/03 07:32:32;;;;;;;6.47;3.30;;;;;;;;;;4967913;28;20413;-44
2023/04/03 07:34:58;;;;;;;14.07;3.10;;;;;;;;;;4963955;28;20440;-44
2023/04/03 07:37:25;;;;;;;3.90;2.87;;;;;;;;;;4965709;28;20434;-44
2023/04/03 07:39:54;;;;;;;3.50;2.43;;;;;;;;;;4964273;28;20803;-44
2023/04/03 07:42:21;;;;;;;6.13;2.60;;;;;;;;;;4957467;28;20414;-45
2023/04/03 07:44:47;;;;;;;3.00;1.97;;;;;;;;;;4964463;28;20410;-44
2023/04/03 07:47:16;;;;;;;4.47;2.80;;;;;;;;;;4969884;28;20407;-45
2023/04/03 07:49:42;;;;;;;7.27;2.50;;;;;;;;;;4965496;28;20525;-44
2023/04/03 07:52:08;;;;;;;4.17;3.10;;;;;;;;;;4958090;28;20432;-44
2023/04/03 07:54:34;;;;;;;2.80;2.10;;;;;;;;;;4964026;28;20428;-45
2023/04/03 07:57:01;;;;;;;4.10;2.50;;;;;;;;;;4965719;28;20451;-44
2023/04/03 07:59:27;;;;;;;5.70;2.90;;;;;;;;;;4967202;28;20423;-44
2023/04/03 08:01:53;;;;;;;6.80;2.30;;;;;;;;;;4964997;28;20420;-44
2023/04/03 08:04:19;;;;;;;3.50;2.23;;;;;;;;;;4970253;28;20793;-44
2023/04/03 08:06:45;;;;;;;5.83;2.77;;;;;;;;;;4967232;28;20410;-44
2023/04/03 08:09:11;;;;;;;6.50;3.60;;;;;;;;;;4961405;28;20463;-44
2023/04/03 08:11:39;;;;;;;5.07;2.10;;;;;;;;;;4961902;28;20428;-44
2023/04/03 08:14:05;;;;;;;5.83;2.30;;;;;;;;;;4965937;28;20896;-43
2023/04/03 08:16:31;;;;;;;7.40;2.60;;;;;;;;;;4967254;28;20469;-44
2023/04/03 08:18:57;;;;;;;3.60;3.17;;;;;;;;;;4965115;28;20924;-44
2023/04/03 08:21:23;;;;;;;4.03;1.97;;;;;;;;;;4964459;28;20960;-44
2023/04/03 08:23:50;;;;;;;3.80;2.63;;;;;;;;;;4962425;28;20442;-45
2023/04/03 08:26:18;;;;;;;6.87;2.90;;;;;;;;;;4952771;28;20482;-44
2023/04/03 08:28:44;;;;;;;3.77;2.00;;;;;;;;;;4966867;28;21006;-45
2023/04/03 08:31:11;;;;;;;4.87;2.47;;;;;;;;;;4964428;28;20507;-45
2023/04/03 08:33:37;;;;;;;5.17;2.80;;;;;;;;;;4964864;28;20847;-44
2023/04/03 08:36:08;;;;;;;3.77;2.50;;;;;;;;;;4965385;28;20413;-45
2023/04/03 08:38:37;;;;;;;4.50;2.63;;;;;;;;;;4962055;28;20418;-44
2023/04/03 08:41:21;;;;;;;5.10;2.80;;;;;;;;;;4962426;28;20464;-44
2023/04/03 08:43:57;;;;;;;3.30;2.57;;;;;;;;;;4966399;28;20417;-44
2023/04/03 08:46:25;;;;;;;3.33;1.97;;;;;;;;;;4958569;28;20821;-44
2023/04/03 08:48:53;;;;;;;3.10;2.80;;;;;;;;;;4957903;28;20461;-44
2023/04/03 08:51:20;;;;;;;11.37;3.40;;;;;;;;;;4954142;28;20527;-45
2023/04/03 08:53:56;;;;;;;4.47;2.50;;;;;;;;;;4955039;28;20829;-44
2023/04/03 08:56:23;;;;;;;2.83;2.53;;;;;;;;;;4954450;28;20940;-44
2023/04/03 08:58:53;;;;;;;4.20;2.67;;;;;;;;;;4955562;28;20906;-44
2023/04/03 09:01:22;;;;;;;2.77;2.53;;;;;;;;;;4954632;28;20425;-44
2023/04/03 09:03:48;;;;;;;4.27;2.50;;;;;;;;;;4955098;28;20985;-45
2023/04/03 09:06:29;;;;;;;3.53;2.87;;;;;;;;;;4954983;28;20453;-45
2023/04/03 09:09:03;;;;;;;2.63;2.10;;;;;;;;;;4954750;28;20513;-44
2023/04/03 09:11:48;;;;;;;3.40;2.30;;;;;;;;;;4954686;28;20504;-45
2023/04/03 09:14:23;;;;;;;7.60;2.57;;;;;;;;;;4954783;28;20421;-45
2023/04/03 09:17:01;;;;;;;2.77;2.30;;;;;;;;;;4943555;28;20417;-45
2023/04/03 09:19:32;;;;;;;5.90;3.33;;;;;;;;;;4955383;28;20785;-45
2023/04/03 09:22:12;;;;;;;4.87;2.70;;;;;;;;;;4959686;28;20428;-45
2023/04/03 09:24:38;;;;;;;2.53;2.00;;;;;;;;;;4954699;28;20414;-45
2023/04/03 09:27:07;;;;;;;2.87;2.10;;;;;;;;;;4954702;28;20417;-45
2023/04/03 09:29:36;;;;;;;3.60;2.17;;;;;;;;;;4954131;28;20809;-44
2023/04/03 09:32:10;;;;;;;5.87;2.27;;;;;;;;;;4954566;28;20413;-45
2023/04/03 09:34:37;;;;;;;6.30;2.50;;;;;;;;;;4954215;28;20669;-44
2023/04/03 09:37:08;;;;;;;4.00;2.23;;;;;;;;;;4955378;28;20430;-43
2023/04/03 09:39:55;;;;;;;3.97;2.13;;;;;;;;;;4954127;28;20758;-44
2023/04/03 09:42:23;;;;;;;2.23;2.00;;;;;;;;;;4954353;29;20424;-43
2023/04/03 09:44:56;;;;;;;4.10;2.17;;;;;;;;;;4954292;28;20505;-44
2023/04/03 09:47:29;;;;;;;3.20;2.07;;;;;;;;;;4954193;28;20433;-44
2023/04/03 09:50:14;;;;;;;5.93;2.47;;;;;;;;;;4953881;28;20900;-45
2023/04/03 09:52:44;;;;;;;3.60;2.40;;;;;;;;;;4951718;28;20438;-46
2023/04/03 09:55:16;;;;;;;4.60;3.03;;;;;;;;;;4954060;28;20495;-45
2023/04/03 09:57:42;;;;;;;3.67;2.57;;;;;;;;;;4961667;28;20500;-44
2023/04/03 10:00:27;;;;;;;2.90;2.00;;;;;;;;;;4964545;28;20524;-43
2023/04/03 10:02:56;;;;;;;2.70;2.50;;;;;;;;;;4959207;28;20504;-44
2023/04/03 10:05:35;;;;;;;3.83;2.80;;;;;;;;;;4961422;28;20461;-44
2023/04/03 10:08:14;;;;;;;4.97;2.40;;;;;;;;;;4962618;28;20430;-44
2023/04/03 10:10:41;;;;;;;5.20;3.07;;;;;;;;;;4964931;28;20430;-44
2023/04/03 10:13:11;;;;;;;3.30;2.90;;;;;;;;;;4964654;28;20451;-45
2023/04/03 10:15:42;;;;;;;3.70;2.90;;;;;;;;;;4961728;28;20409;-44
2023/04/03 10:18:18;;;;;;;2.37;2.10;;;;;;;;;;4958540;28;20392;-44
2023/04/03 10:20:44;;;;;;;5.33;2.17;;;;;;;;;;4956718;28;20484;-44
2023/04/03 10:23:37;;;;;;;5.73;2.47;;;;;;;;;;4963055;28;20396;-44
2023/04/03 10:26:10;;;;;;;3.23;2.23;;;;;;;;;;4963882;28;20742;-44
2023/04/03 10:28:52;;;;;;;2.53;2.07;;;;;;;;;;4962187;28;20863;-44
2023/04/03 10:31:26;;;;;;;3.40;2.17;;;;;;;;;;4954206;28;20899;-44
2023/04/03 10:33:56;;;;;;;2.80;2.27;;;;;;;;;;4969022;28;20371;-44
2023/04/03 10:36:34;;;;;;;3.10;2.63;;;;;;;;;;4965084;28;20920;-44
2023/04/03 10:39:07;;;;;;;3.50;2.27;;;;;;;;;;4963146;28;20514;-44
2023/04/03 10:41:45;;;;;;;3.67;2.50;;;;;;;;;;4963399;28;20409;-44
2023/04/03 10:44:16;;;;;;;3.93;2.03;;;;;;;;;;4964072;28;20443;-44
2023/04/03 10:46:45;;;;;;;3.50;2.40;;;;;;;;;;4963799;28;20414;-43
2023/04/03 10:49:30;;;;;;;2.67;2.37;;;;;;;;;;4962910;28;21003;-45
2023/04/03 10:52:06;;;;;;;2.73;2.00;;;;;;;;;;4969194;28;20466;-44
2023/04/03 10:54:39;;;;;;;3.33;2.17;;;;;;;;;;4969881;28;20448;-45
2023/04/03 10:57:06;;;;;;;4.80;3.17;;;;;;;;;;4961307;28;20401;-43
2023/04/03 10:59:40;;;;;;;3.30;2.63;;;;;;;;;;4957863;28;20420;-43
2023/04/03 11:02:12;;;;;;;3.07;2.80;;;;;;;;;;4959312;28;20426;-46
2023/04/03 11:04:40;;;;;;;6.13;3.27;;;;;;;;;;4960217;28;20458;-43
2023/04/03 11:07:12;;;;;;;4.60;2.30;;;;;;;;;;4957957;28;20437;-43
2023/04/03 11:09:40;;;;;;;3.17;2.70;;;;;;;;;;4958067;28;20467;-44
2023/04/03 11:12:25;;;;;;;5.40;2.37;;;;;;;;;;4957012;28;20430;-44
2023/04/03 11:14:52;;;;;;;2.53;2.33;;;;;;;;;;4958794;28;20830;-44
2023/04/03 11:17:23;;;;;;;4.03;2.00;;;;;;;;;;4960491;28;20405;-44
2023/04/03 11:19:56;;;;;;;2.93;2.33;;;;;;;;;;4960636;28;20490;-44
2023/04/03 11:22:31;;;;;;;4.20;2.43;;;;;;;;;;4953874;28;20425;-44
2023/04/03 11:25:01;;;;;;;2.80;2.30;;;;;;;;;;4962112;28;20473;-44
2023/04/03 11:27:30;;;;;;;5.63;2.93;;;;;;;;;;4966924;28;20467;-44
2023/04/03 11:29:56;;;;;;;2.20;1.97;;;;;;;;;;4967277;28;20482;-43
2023/04/03 11:32:22;;;;;;;2.90;2.10;;;;;;;;;;4967730;28;20416;-43
2023/04/03 11:34:49;;;;;;;2.40;2.20;;;;;;;;;;4967480;28;20419;-43
2023/04/03 11:37:29;;;;;;;2.90;2.07;;;;;;;;;;4960657;28;20891;-44
2023/04/03 11:40:02;;;;;;;2.23;2.03;;;;;;;;;;4969647;28;20436;-43
2023/04/03 11:42:38;;;;;;;3.00;2.70;;;;;;;;;;4955442;28;20428;-44
2023/04/03 11:45:16;;;;;;;2.80;2.50;;;;;;;;;;4962956;28;20420;-44
2023/04/03 11:47:50;;;;;;;3.40;2.63;;;;;;;;;;4967253;28;20394;-43
2023/04/03 11:50:35;;;;;;;6.50;1.77;;;;;;;;;;4959772;28;20534;-44
2023/04/03 11:53:07;;;;;;;2.60;2.40;;;;;;;;;;4957366;28;20444;-44
2023/04/03 11:55:33;;;;;;;2.13;1.60;;;;;;;;;;4957792;28;20434;-44
2023/04/03 11:58:00;;;;;;;2.83;1.87;;;;;;;;;;4958530;28;20380;-43
2023/04/03 12:00:49;;;;;;;5.07;2.20;;;;;;;;;;4955734;28;20555;-43
2023/04/03 12:03:28;;;;;;;2.93;2.00;;;;;;;;;;4954777;28;20423;-46
2023/04/03 12:06:03;;;;;;;4.03;2.23;;;;;;;;;;4956435;28;20379;-44
2023/04/03 12:08:30;;;;;;;2.83;2.03;;;;;;;;;;4956250;28;20521;-43
2023/04/03 12:11:08;;;;;;;4.73;2.43;;;;;;;;;;4956473;28;20453;-43
2023/04/03 12:13:55;;;;;;;2.27;2.07;;;;;;;;;;4967327;28;20421;-44
2023/04/03 12:16:21;;;;;;;2.03;1.83;;;;;;;;;;4952666;28;20405;-44
2023/04/03 12:18:53;;;;;;;4.60;2.40;;;;;;;;;;4968481;28;20397;-44
2023/04/03 12:21:23;;;;;;;2.37;2.10;;;;;;;;;;4955084;28;20421;-44
2023/04/03 12:24:04;;;;;;;5.93;2.37;;;;;;;;;;4959378;28;20811;-46
2023/04/03 12:26:37;;;;;;;2.50;1.70;;;;;;;;;;4962225;28;20453;-44
2023/04/03 12:29:10;;;;;;;4.53;1.83;;;;;;;;;;4965351;28;20524;-44
2023/04/03 12:31:46;;;;;;;8.20;2.23;;;;;;;;;;4965674;28;20434;-45
2023/04/03 12:34:38;;;;;;;2.90;2.30;;;;;;;;;;4966640;28;20491;-44
2023/04/03 12:37:09;;;;;;;3.53;2.30;;;;;;;;;;4962527;28;20424;-44
2023/04/03 12:39:54;;;;;;;4.13;2.17;;;;;;;;;;4963262;28;20379;-43
2023/04/03 12:42:22;;;;;;;3.93;2.07;;;;;;;;;;4956394;28;20398;-43
2023/04/03 12:45:07;;;;;;;2.50;1.87;;;;;;;;;;4963582;28;20428;-44
2023/04/03 12:47:35;;;;;;;2.53;2.30;;;;;;;;;;4959036;28;20569;-44
2023/04/03 12:50:02;;;;;;;2.40;2.10;;;;;;;;;;4966110;28;20474;-43
2023/04/03 12:52:32;;;;;;;3.07;2.13;;;;;;;;;;4962934;28;20384;-43
2023/04/03 12:55:00;;;;;;;2.80;2.10;;;;;;;;;;4958974;28;20414;-44
2023/04/03 12:57:27;;;;;;;1.87;1.47;;;;;;;;;;4966604;28;20394;-43
2023/04/03 12:59:53;;;;;;;5.57;2.03;;;;;;;;;;4963366;28;20475;-44
2023/04/03 13:02:23;;;;;;;2.40;1.70;;;;;;;;;;4966178;28;20450;-43
2023/04/03 13:04:49;;;;;;;2.00;1.80;;;;;;;;;;4963171;28;20450;-44
2023/04/03 13:07:25;;;;;;;2.30;1.83;;;;;;;;;;4964990;28;20410;-44
2023/04/03 13:10:02;;;;;;;2.07;1.80;;;;;;;;;;4962613;28;20914;-44
2023/04/03 13:12:29;;;;;;;3.00;1.97;;;;;;;;;;4963042;28;20417;-44
2023/04/03 13:14:57;;;;;;;2.37;2.17;;;;;;;;;;4968072;28;20411;-44
2023/04/03 13:17:24;;;;;;;3.20;1.80;;;;;;;;;;4963020;28;20875;-44
2023/04/03 13:19:51;;;;;;;3.47;2.10;;;;;;;;;;4954571;28;20489;-43
2023/04/03 13:22:17;;;;;;;2.00;1.80;;;;;;;;;;4963032;28;20395;-44
2023/04/03 13:24:45;;;;;;;2.30;1.83;;;;;;;;;;4962688;28;20413;-44
2023/04/03 13:27:11;;;;;;;3.63;2.07;;;;;;;;;;4965575;28;20449;-44
2023/04/03 13:29:38;;;;;;;2.70;1.90;;;;;;;;;;4964534;28;20843;-45
2023/04/03 13:32:05;;;;;;;2.20;1.97;;;;;;;;;;4962689;28;20431;-44
2023/04/03 13:34:36;;;;;;;2.30;1.77;;;;;;;;;;4962417;28;20408;-43
2023/04/03 13:37:04;;;;;;;2.03;1.93;;;;;;;;;;4955708;28;20892;-44
2023/04/03 13:39:33;;;;;;;1.83;1.70;;;;;;;;;;4971195;28;20392;-44
2023/04/03 13:42:04;;;;;;;2.90;2.03;;;;;;;;;;4963096;28;20407;-43
2023/04/03 13:44:35;;;;;;;5.13;2.67;;;;;;;;;;4964084;28;20464;-44
2023/04/03 13:47:20;;;;;;;2.17;1.90;;;;;;;;;;4963845;28;20414;-45
2023/04/03 13:49:58;;;;;;;2.10;1.70;;;;;;;;;;4958552;28;20515;-44
2023/04/03 13:52:40;;;;;;;3.00;1.83;;;;;;;;;;4955737;28;20882;-44
2023/04/03 13:55:18;;;;;;;5.90;2.43;;;;;;;;;;4964036;28;20406;-44
2023/04/03 13:57:56;;;;;;;3.57;2.00;;;;;;;;;;4963736;28;20391;-44
2023/04/03 14:00:37;;;;;;;2.80;2.00;;;;;;;;;;4958955;28;20463;-44
2023/04/03 14:03:03;;;;;;;3.10;2.27;;;;;;;;;;4964265;28;20490;-43
2023/04/03 14:05:30;;;;;;;3.53;1.97;;;;;;;;;;4959873;28;20424;-44
2023/04/03 14:07:56;;;;;;;1.60;1.50;;;;;;;;;;4964325;28;20425;-44
2023/04/03 14:10:23;;;;;;;2.30;2.03;;;;;;;;;;4963400;28;21026;-45
2023/04/03 14:12:50;;;;;;;1.90;1.80;;;;;;;;;;4961269;28;20393;-45
2023/04/03 14:15:19;;;;;;;2.43;2.10;;;;;;;;;;4963950;28;20405;-44
2023/04/03 14:17:45;;;;;;;1.80;1.70;;;;;;;;;;4961769;28;20932;-44
2023/04/03 14:20:16;;;;;;;2.23;1.93;;;;;;;;;;4956127;28;20931;-44
2023/04/03 14:22:42;;;;;;;1.67;1.57;;;;;;;;;;4963378;28;20788;-44
2023/04/03 14:25:08;;;;;;;2.33;1.70;;;;;;;;;;4967275;28;20919;-44
2023/04/03 14:27:35;;;;;;;1.93;1.77;;;;;;;;;;4963548;28;20413;-44
2023/04/03 14:30:03;;;;;;;1.67;1.57;;;;;;;;;;4959017;28;20477;-44
2023/04/03 14:32:29;;;;;;;2.37;1.80;;;;;;;;;;4960374;28;20521;-44
2023/04/03 14:34:57;;;;;;;2.87;2.20;;;;;;;;;;4962493;28;20408;-44
2023/04/03 14:37:26;;;;;;;2.60;1.80;;;;;;;;;;4964821;28;20402;-43
2023/04/03 14:39:53;;;;;;;6.20;2.20;;;;;;;;;;4962234;28;20416;-44
2023/04/03 14:42:24;;;;;;;3.33;1.87;;;;;;;;;;4964947;28;20424;-45
2023/04/03 14:44:50;;;;;;;4.00;1.87;;;;;;;;;;4964018;28;20417;-44
2023/04/03 14:47:19;;;;;;;3.50;2.33;;;;;;;;;;4957604;28;20787;-44
2023/04/03 14:49:45;;;;;;;1.67;1.57;;;;;;;;;;4963565;28;20471;-43